createdAt,value
2019-03-05T00:01:43.191Z,9.40
2019-03-05T00:04:16.990Z,9.40
2019-03-05T00:06:47.263Z,9.30
2019-03-05T00:09:22.501Z,9.20
2019-03-05T00:11:52.930Z,9.10
2019-03-05T00:14:23.077Z,9.00
2019-03-05T00:16:53.483Z,8.80
2019-03-05T00:19:23.856Z,8.70
2019-03-05T00:21:53.323Z,8.60
2019-03-05T00:24:51.184Z,8.50
2019-03-05T00:27:21.861Z,8.40
2019-03-05T00:30:26.013Z,8.40
2019-03-05T00:33:03.955Z,8.40
2019-03-05T00:35:55.559Z,8.30
2019-03-05T00:38:33.715Z,8.10
2019-03-05T00:41:21.135Z,8.00
2019-03-05T00:44:02.422Z,7.90
2019-03-05T00:46:34.695Z,7.70
2019-03-05T00:49:07.006Z,7.60
2019-03-05T00:51:52.530Z,7.50
2019-03-05T00:54:30.685Z,7.40
2019-03-05T00:57:25.482Z,7.40
2019-03-05T01:00:06.901Z,7.30
2019-03-05T01:02:57.144Z,7.30
2019-03-05T01:05:36.323Z,7.20
2019-03-05T01:08:06.830Z,7.20
2019-03-05T01:10:36.242Z,7.10
2019-03-05T01:13:06.651Z,6.90
2019-03-05T01:15:36.478Z,6.90
2019-03-05T01:18:07.689Z,6.80
2019-03-05T01:20:38.861Z,6.80
2019-03-05T01:23:10.895Z,6.80
2019-03-05T01:25:40.310Z,6.80
2019-03-05T01:28:13.836Z,6.70
2019-03-05T01:31:01.736Z,6.70
2019-03-05T01:33:41.582Z,6.70
2019-03-05T01:36:15.534Z,6.60
2019-03-05T01:38:50.367Z,6.60
2019-03-05T01:41:19.849Z,6.60
2019-03-05T01:43:49.099Z,6.60
2019-03-05T01:46:18.478Z,6.70
2019-03-05T01:48:48.782Z,6.70
2019-03-05T01:51:18.057Z,6.70
2019-03-05T01:53:47.411Z,6.70
2019-03-05T01:56:19.755Z,6.80
2019-03-05T01:58:49.025Z,6.80
2019-03-05T02:01:18.383Z,6.80
2019-03-05T02:03:56.996Z,6.80
2019-03-05T02:06:30.556Z,6.80
2019-03-05T02:09:00.059Z,6.80
2019-03-05T02:11:29.535Z,6.80
2019-03-05T02:13:59.019Z,6.80
2019-03-05T02:16:28.265Z,6.80
2019-03-05T02:19:34.046Z,6.80
2019-03-05T02:22:03.578Z,6.80
2019-03-05T02:25:04.638Z,6.80
2019-03-05T02:27:52.819Z,6.80
2019-03-05T02:30:55.657Z,6.80
2019-03-05T02:33:46.246Z,6.80
2019-03-05T02:36:47.171Z,6.80
2019-03-05T02:39:52.671Z,6.80
2019-03-05T02:42:33.604Z,6.80
2019-03-05T02:45:37.984Z,6.80
2019-03-05T02:48:13.428Z,6.80
2019-03-05T02:51:05.257Z,6.80
2019-03-05T02:54:11.054Z,6.80
2019-03-05T02:56:46.646Z,6.80
2019-03-05T02:59:14.823Z,6.80
2019-03-05T03:01:48.370Z,6.70
2019-03-05T03:04:28.796Z,6.70
2019-03-05T03:06:58.035Z,6.70
2019-03-05T03:09:34.656Z,6.70
2019-03-05T03:12:06.051Z,6.80
2019-03-05T03:14:35.485Z,6.70
2019-03-05T03:17:05.011Z,6.70
2019-03-05T03:19:34.563Z,6.80
2019-03-05T03:22:04.133Z,6.70
2019-03-05T03:24:35.998Z,6.70
2019-03-05T03:27:05.665Z,6.70
2019-03-05T03:29:34.956Z,6.70
2019-03-05T03:32:10.241Z,6.70
2019-03-05T03:34:39.707Z,6.70
2019-03-05T03:37:10.855Z,6.70
2019-03-05T03:39:40.392Z,6.70
2019-03-05T03:42:09.970Z,6.70
2019-03-05T03:44:39.382Z,6.70
2019-03-05T03:47:09.722Z,6.70
2019-03-05T03:49:42.143Z,6.70
2019-03-05T03:52:12.389Z,6.70
2019-03-05T03:54:42.741Z,6.70
2019-03-05T03:57:13.117Z,6.70
2019-03-05T03:59:42.335Z,6.70
2019-03-05T04:02:12.523Z,6.70
2019-03-05T04:04:44.897Z,6.70
2019-03-05T04:07:16.456Z,6.70
2019-03-05T04:09:46.739Z,6.70
2019-03-05T04:12:17.105Z,6.70
2019-03-05T04:14:47.379Z,6.70
2019-03-05T04:17:17.725Z,6.70
2019-03-05T04:19:47.253Z,6.70
2019-03-05T04:22:16.682Z,6.60
2019-03-05T04:24:45.863Z,6.60
2019-03-05T04:27:17.943Z,6.60
2019-03-05T04:29:50.151Z,6.60
2019-03-05T04:32:23.845Z,6.60
2019-03-05T04:34:52.860Z,6.60
2019-03-05T04:37:22.383Z,6.60
2019-03-05T04:39:54.381Z,6.60
2019-03-05T04:42:24.609Z,6.50
2019-03-05T04:44:55.783Z,6.50
2019-03-05T04:47:26.123Z,6.50
2019-03-05T04:50:01.884Z,6.40
2019-03-05T04:52:33.509Z,6.40
2019-03-05T04:55:02.928Z,6.30
2019-03-05T04:57:33.356Z,6.30
2019-03-05T05:00:05.157Z,6.30
2019-03-05T05:02:34.677Z,6.30
2019-03-05T05:05:05.242Z,6.20
2019-03-05T05:07:35.681Z,6.10
2019-03-05T05:10:07.257Z,6.00
2019-03-05T05:12:36.766Z,6.00
2019-03-05T05:15:09.306Z,6.00
2019-03-05T05:17:38.602Z,5.90
2019-03-05T05:20:08.991Z,5.90
2019-03-05T05:22:38.448Z,5.80
2019-03-05T05:25:07.977Z,5.80
2019-03-05T05:27:37.422Z,5.70
2019-03-05T05:30:09.676Z,5.60
2019-03-05T05:32:38.897Z,5.60
2019-03-05T05:35:11.274Z,5.50
2019-03-05T05:37:40.832Z,5.50
2019-03-05T05:40:32.188Z,5.50
2019-03-05T05:43:02.002Z,5.40
2019-03-05T05:45:41.186Z,5.40
2019-03-05T05:48:10.847Z,5.40
2019-03-05T05:50:40.324Z,5.30
2019-03-05T05:53:09.823Z,5.40
2019-03-05T05:55:40.194Z,5.30
2019-03-05T05:58:09.589Z,5.30
2019-03-05T06:00:40.519Z,5.40
2019-03-05T06:03:09.899Z,5.40
2019-03-05T06:05:39.339Z,5.40
2019-03-05T06:08:08.959Z,5.40
2019-03-05T06:10:38.446Z,5.40
2019-03-05T06:13:07.843Z,5.40
2019-03-05T06:15:37.075Z,5.40
2019-03-05T06:18:06.559Z,5.40
2019-03-05T06:20:35.968Z,5.40
2019-03-05T06:23:06.279Z,5.40
2019-03-05T06:25:35.518Z,5.40
2019-03-05T06:28:04.941Z,5.50
2019-03-05T06:30:39.782Z,5.50
2019-03-05T06:33:09.272Z,5.60
2019-03-05T06:35:38.942Z,5.60
2019-03-05T06:38:08.282Z,5.60
2019-03-05T06:40:37.801Z,5.70
2019-03-05T06:43:07.286Z,5.70
2019-03-05T06:45:36.869Z,5.80
2019-03-05T06:48:06.347Z,5.80
2019-03-05T06:50:35.743Z,5.90
2019-03-05T06:53:06.078Z,6.00
2019-03-05T06:55:35.296Z,6.00
2019-03-05T06:58:04.736Z,6.10
2019-03-05T07:00:38.545Z,6.10
2019-03-05T07:03:10.024Z,6.20
2019-03-05T07:06:15.463Z,6.30
2019-03-05T07:08:48.346Z,6.30
2019-03-05T07:11:35.642Z,6.40
2019-03-05T07:14:11.063Z,6.40
2019-03-05T07:17:01.383Z,6.40
2019-03-05T07:19:33.937Z,6.40
2019-03-05T07:22:14.867Z,6.30
2019-03-05T07:24:48.214Z,6.30
2019-03-05T07:27:24.287Z,6.50
2019-03-05T07:29:55.540Z,6.50
2019-03-05T07:32:25.003Z,6.60
2019-03-05T07:34:54.485Z,6.60
2019-03-05T07:37:23.675Z,6.70
2019-03-05T07:39:55.130Z,6.80
2019-03-05T07:42:24.295Z,6.90
2019-03-05T07:44:53.771Z,6.90
2019-03-05T07:47:23.259Z,7.00
2019-03-05T07:49:52.801Z,7.10
2019-03-05T07:52:22.282Z,7.40
2019-03-05T07:54:52.588Z,7.80
2019-03-05T07:57:22.489Z,7.90
2019-03-05T07:59:51.684Z,8.20
2019-03-05T08:02:21.088Z,8.50
2019-03-05T08:04:51.452Z,8.70
2019-03-05T08:07:20.644Z,8.90
2019-03-05T08:09:50.043Z,8.90
2019-03-05T08:12:22.594Z,9.10
2019-03-05T08:15:03.865Z,9.20
2019-03-05T08:17:33.466Z,8.80
2019-03-05T08:20:02.864Z,8.20
2019-03-05T08:22:32.590Z,8.00
2019-03-05T08:25:01.798Z,7.80
2019-03-05T08:27:31.510Z,7.80
2019-03-05T08:30:00.938Z,7.70
2019-03-05T08:32:30.357Z,7.70
2019-03-05T08:34:59.882Z,7.60
2019-03-05T08:37:29.426Z,7.60
2019-03-05T08:39:58.898Z,7.50
2019-03-05T08:42:28.386Z,7.50
2019-03-05T08:44:57.870Z,7.50
2019-03-05T08:47:27.444Z,7.60
2019-03-05T08:49:56.844Z,7.50
2019-03-05T08:52:29.271Z,7.50
2019-03-05T08:54:58.720Z,7.50
2019-03-05T08:57:28.245Z,7.60
2019-03-05T09:00:00.674Z,7.70
2019-03-05T09:02:30.104Z,7.80
2019-03-05T09:04:59.336Z,7.90
2019-03-05T09:07:28.779Z,7.90
2019-03-05T09:09:58.219Z,7.80
2019-03-05T09:12:28.030Z,7.80
2019-03-05T09:14:57.289Z,7.80
2019-03-05T09:17:26.739Z,7.80
2019-03-05T09:19:56.248Z,7.80
2019-03-05T09:22:29.456Z,7.80
2019-03-05T09:24:58.939Z,8.00
2019-03-05T09:27:28.444Z,7.90
2019-03-05T09:29:57.669Z,8.00
2019-03-05T09:32:27.033Z,8.70
2019-03-05T09:34:56.215Z,9.20
2019-03-05T09:37:25.688Z,9.50
2019-03-05T09:39:55.165Z,9.60
2019-03-05T09:42:27.192Z,9.60
2019-03-05T09:44:58.844Z,9.20
2019-03-05T09:47:28.241Z,9.00
2019-03-05T09:49:58.486Z,9.10
2019-03-05T09:52:27.764Z,9.20
2019-03-05T09:54:57.119Z,9.20
2019-03-05T09:57:28.230Z,8.90
2019-03-05T09:59:57.409Z,8.90
2019-03-05T10:02:26.839Z,8.80
2019-03-05T10:04:56.017Z,8.80
2019-03-05T10:07:25.509Z,8.90
2019-03-05T10:09:54.934Z,8.90
2019-03-05T10:12:24.335Z,9.00
2019-03-05T10:14:53.589Z,9.10
2019-03-05T10:17:23.054Z,8.70
2019-03-05T10:19:52.218Z,8.40
2019-03-05T10:22:21.707Z,8.20
2019-03-05T10:24:51.473Z,8.00
2019-03-05T10:27:20.681Z,8.00
2019-03-05T10:29:52.352Z,8.00
2019-03-05T10:32:21.311Z,8.10
2019-03-05T10:34:50.548Z,8.10
2019-03-05T10:37:19.812Z,8.00
2019-03-05T10:39:49.087Z,7.90
2019-03-05T10:42:18.534Z,8.00
2019-03-05T10:44:48.957Z,8.00
2019-03-05T10:47:18.425Z,8.00
2019-03-05T10:49:47.850Z,8.00
2019-03-05T10:52:17.130Z,7.90
2019-03-05T10:54:46.470Z,7.90
2019-03-05T10:57:16.026Z,7.90
2019-03-05T10:59:45.788Z,7.80
2019-03-05T11:02:17.128Z,7.90
2019-03-05T11:04:46.529Z,7.90
2019-03-05T11:07:19.406Z,7.80
2019-03-05T11:09:52.499Z,7.90
2019-03-05T11:12:22.396Z,7.80
2019-03-05T11:14:51.604Z,7.70
2019-03-05T11:17:21.020Z,7.50
2019-03-05T11:19:50.590Z,7.40
2019-03-05T11:22:19.788Z,7.40
2019-03-05T11:24:48.934Z,7.30
2019-03-05T11:27:18.364Z,7.20
2019-03-05T11:29:47.610Z,7.10
2019-03-05T11:32:16.778Z,7.10
2019-03-05T11:34:45.945Z,7.20
2019-03-05T11:37:15.287Z,7.10
2019-03-05T11:39:44.435Z,7.10
2019-03-05T11:42:13.594Z,7.20
2019-03-05T11:44:42.877Z,7.20
2019-03-05T11:47:12.493Z,7.30
2019-03-05T11:49:41.650Z,7.30
2019-03-05T11:52:12.144Z,7.40
2019-03-05T11:54:41.374Z,7.50
2019-03-05T11:57:10.528Z,7.50
2019-03-05T11:59:39.732Z,7.60
2019-03-05T12:02:09.861Z,7.50
2019-03-05T12:04:39.756Z,7.60
2019-03-05T12:07:08.967Z,7.50
2019-03-05T12:09:38.225Z,7.50
2019-03-05T12:12:08.008Z,7.40
2019-03-05T12:14:37.235Z,7.50
2019-03-05T12:17:06.905Z,7.50
2019-03-05T12:19:36.207Z,7.40
2019-03-05T12:22:05.377Z,7.30
2019-03-05T12:24:34.815Z,7.30
2019-03-05T12:27:06.741Z,7.30
2019-03-05T12:29:35.941Z,7.20
2019-03-05T12:32:05.423Z,7.20
2019-03-05T12:34:35.679Z,7.10
2019-03-05T12:37:04.938Z,7.20
2019-03-05T12:39:35.386Z,7.10
2019-03-05T12:42:04.702Z,7.20
2019-03-05T12:44:34.301Z,7.10
2019-03-05T12:47:03.990Z,7.10
2019-03-05T12:49:33.700Z,7.10
2019-03-05T12:52:03.100Z,7.10
2019-03-05T12:54:32.716Z,7.10
2019-03-05T12:57:02.051Z,7.00
2019-03-05T12:59:31.394Z,7.10
2019-03-05T13:02:00.751Z,7.10
2019-03-05T13:04:32.264Z,7.10
2019-03-05T13:07:01.474Z,7.10
2019-03-05T13:09:31.095Z,7.10
2019-03-05T13:12:00.337Z,7.10
2019-03-05T13:14:29.938Z,7.20
2019-03-05T13:16:59.326Z,7.20
2019-03-05T13:19:28.536Z,7.10
2019-03-05T13:21:57.945Z,7.10
2019-03-05T13:24:27.432Z,7.10
2019-03-05T13:26:56.595Z,7.00
2019-03-05T13:29:26.081Z,7.00
2019-03-05T13:31:55.538Z,7.10
2019-03-05T13:34:24.706Z,7.20
2019-03-05T13:36:54.227Z,7.30
2019-03-05T13:39:23.853Z,7.40
2019-03-05T13:41:54.977Z,7.50
2019-03-05T13:44:34.065Z,7.70
2019-03-05T13:47:06.115Z,7.80
2019-03-05T13:49:44.441Z,7.90
2019-03-05T13:52:36.098Z,8.00
2019-03-05T13:55:17.451Z,8.10
2019-03-05T13:57:56.081Z,8.20
2019-03-05T14:00:25.805Z,8.20
2019-03-05T14:03:16.520Z,8.20
2019-03-05T14:06:01.752Z,8.30
2019-03-05T14:08:46.393Z,8.30
2019-03-05T14:11:17.044Z,8.30
2019-03-05T14:13:46.462Z,8.20
2019-03-05T14:16:17.667Z,8.20
2019-03-05T14:18:47.128Z,8.20
2019-03-05T14:21:16.600Z,8.10
2019-03-05T14:23:46.359Z,8.10
2019-03-05T14:26:15.559Z,8.10
2019-03-05T14:28:46.740Z,8.20
2019-03-05T14:31:16.332Z,8.10
2019-03-05T14:33:50.362Z,8.10
2019-03-05T14:36:21.949Z,8.10
2019-03-05T14:38:51.317Z,8.10
2019-03-05T14:41:20.907Z,8.10
2019-03-05T14:43:50.330Z,8.10
2019-03-05T14:46:19.882Z,8.10
2019-03-05T14:48:49.418Z,8.10
2019-03-05T14:51:18.852Z,8.10
2019-03-05T14:53:48.351Z,8.10
2019-03-05T14:56:18.711Z,8.00
2019-03-05T14:58:48.990Z,8.00
2019-03-05T15:01:18.502Z,8.00
2019-03-05T15:03:53.896Z,8.00
2019-03-05T15:06:24.404Z,7.90
2019-03-05T15:08:53.657Z,7.90
2019-03-05T15:11:26.093Z,7.90
2019-03-05T15:13:55.458Z,7.90
2019-03-05T15:16:24.959Z,7.90
2019-03-05T15:18:54.550Z,7.90
2019-03-05T15:21:26.032Z,7.90
2019-03-05T15:23:56.343Z,7.90
2019-03-05T15:26:25.905Z,8.00
2019-03-05T15:28:56.512Z,8.00
2019-03-05T15:31:26.655Z,8.00
2019-03-05T15:33:56.443Z,8.00
2019-03-05T15:36:25.963Z,7.90
2019-03-05T15:38:55.421Z,7.90
2019-03-05T15:41:24.786Z,7.90
2019-03-05T15:43:54.988Z,7.80
2019-03-05T15:46:24.334Z,7.70
2019-03-05T15:48:53.897Z,7.60
2019-03-05T15:51:23.423Z,7.60
2019-03-05T15:53:52.914Z,7.60
2019-03-05T15:56:22.392Z,7.50
2019-03-05T15:58:51.855Z,7.50
2019-03-05T16:01:22.853Z,7.50
2019-03-05T16:03:52.629Z,7.60
2019-03-05T16:06:22.820Z,7.60
2019-03-05T16:08:51.979Z,7.60
2019-03-05T16:11:21.188Z,7.60
2019-03-05T16:13:52.414Z,7.50
2019-03-05T16:16:29.545Z,7.20
2019-03-05T16:18:58.954Z,6.70
2019-03-05T16:21:28.526Z,6.40
2019-03-05T16:24:01.749Z,6.10
2019-03-05T16:26:29.111Z,6.00
2019-03-05T16:29:02.347Z,6.00
2019-03-05T16:31:33.586Z,5.80
2019-03-05T16:34:27.792Z,5.80
2019-03-05T16:37:02.114Z,5.60
2019-03-05T16:39:53.782Z,5.60
2019-03-05T16:42:32.212Z,5.60
2019-03-05T16:45:17.552Z,5.50
2019-03-05T16:47:48.722Z,5.60
2019-03-05T16:50:19.593Z,5.50
2019-03-05T16:53:05.397Z,5.50
2019-03-05T16:55:36.551Z,5.40
2019-03-05T16:58:10.590Z,5.40
2019-03-05T17:00:50.676Z,5.40
2019-03-05T17:03:36.883Z,5.30
2019-03-05T17:06:14.463Z,5.30
2019-03-05T17:08:45.403Z,5.30
2019-03-05T17:11:19.382Z,5.20
2019-03-05T17:13:48.995Z,5.20
2019-03-05T17:16:18.456Z,5.20
2019-03-05T17:18:47.892Z,5.10
2019-03-05T17:21:26.826Z,5.10
2019-03-05T17:23:48.710Z,5.00
2019-03-05T17:26:18.060Z,5.00
2019-03-05T17:28:48.782Z,5.00
2019-03-05T17:31:17.996Z,5.00
2019-03-05T17:33:47.382Z,4.90
2019-03-05T17:36:16.903Z,4.90
2019-03-05T17:38:46.437Z,4.90
2019-03-05T17:41:16.803Z,4.90
2019-03-05T17:43:46.236Z,4.90
2019-03-05T17:46:15.826Z,4.80
2019-03-05T17:48:45.267Z,4.90
2019-03-05T17:51:15.160Z,4.80
2019-03-05T17:53:44.342Z,4.80
2019-03-05T17:56:13.954Z,4.80
2019-03-05T17:58:44.494Z,4.80
2019-03-05T18:01:15.547Z,4.80
2019-03-05T18:03:45.216Z,4.80
2019-03-05T18:06:14.705Z,4.90
2019-03-05T18:08:44.201Z,4.90
2019-03-05T18:11:13.923Z,4.90
2019-03-05T18:13:44.089Z,4.90
2019-03-05T18:16:13.638Z,4.90
2019-03-05T18:18:43.058Z,4.90
2019-03-05T18:21:12.503Z,4.90
2019-03-05T18:23:42.111Z,4.90
2019-03-05T18:26:11.953Z,4.90
2019-03-05T18:28:41.447Z,4.90
2019-03-05T18:31:11.053Z,4.90
2019-03-05T18:33:40.835Z,4.90
2019-03-05T18:36:10.077Z,4.90
2019-03-05T18:38:39.623Z,5.00
2019-03-05T18:41:09.375Z,4.90
2019-03-05T18:43:38.931Z,4.80
2019-03-05T18:46:09.231Z,4.80
2019-03-05T18:48:38.718Z,4.80
2019-03-05T18:51:08.367Z,4.80
2019-03-05T18:53:43.946Z,4.80
2019-03-05T18:56:13.361Z,4.80
2019-03-05T18:58:42.943Z,4.80
2019-03-05T19:01:12.557Z,4.90
2019-03-05T19:03:44.084Z,4.90
2019-03-05T19:06:13.433Z,4.90
2019-03-05T19:08:42.628Z,4.90
2019-03-05T19:11:12.099Z,4.90
2019-03-05T19:13:41.595Z,4.90
2019-03-05T19:16:11.287Z,4.90
2019-03-05T19:18:40.627Z,4.90
2019-03-05T19:21:10.199Z,4.80
2019-03-05T19:23:40.084Z,4.90
2019-03-05T19:26:10.424Z,4.90
2019-03-05T19:28:39.812Z,4.90
2019-03-05T19:31:15.554Z,4.90
2019-03-05T19:33:45.850Z,4.90
2019-03-05T19:36:17.354Z,4.90
2019-03-05T19:38:46.960Z,4.90
2019-03-05T19:41:16.348Z,4.90
2019-03-05T19:43:45.892Z,4.90
2019-03-05T19:46:15.805Z,4.90
2019-03-05T19:48:45.337Z,5.00
2019-03-05T19:51:14.778Z,5.00
2019-03-05T19:53:45.198Z,5.10
2019-03-05T19:56:14.734Z,5.10
2019-03-05T19:58:45.026Z,5.10
2019-03-05T20:01:18.460Z,5.10
2019-03-05T20:03:47.764Z,5.00
2019-03-05T20:06:18.405Z,5.10
2019-03-05T20:08:48.063Z,5.10
2019-03-05T20:11:17.361Z,5.00
2019-03-05T20:13:46.535Z,5.00
2019-03-05T20:16:16.380Z,4.90
2019-03-05T20:18:45.898Z,4.80
2019-03-05T20:21:15.413Z,4.80
2019-03-05T20:23:45.431Z,4.70
2019-03-05T20:26:16.338Z,4.80
2019-03-05T20:28:45.608Z,4.70
2019-03-05T20:31:15.081Z,4.70
2019-03-05T20:33:44.562Z,4.70
2019-03-05T20:36:14.046Z,4.60
2019-03-05T20:38:43.593Z,4.60
2019-03-05T20:41:13.331Z,4.60
2019-03-05T20:43:42.979Z,4.50
2019-03-05T20:46:15.885Z,4.50
2019-03-05T20:48:45.277Z,4.50
2019-03-05T20:51:14.910Z,4.50
2019-03-05T20:53:44.376Z,4.50
2019-03-05T20:56:14.342Z,4.40
2019-03-05T20:58:43.804Z,4.40
2019-03-05T21:01:13.694Z,4.30
2019-03-05T21:03:44.126Z,4.30
2019-03-05T21:06:13.581Z,4.30
2019-03-05T21:08:49.201Z,4.20
2019-03-05T21:11:18.614Z,4.30
2019-03-05T21:13:47.985Z,4.20
2019-03-05T21:16:17.332Z,4.20
2019-03-05T21:18:56.428Z,4.20
2019-03-05T21:21:26.570Z,4.20
2019-03-05T21:23:56.874Z,4.20
2019-03-05T21:26:27.188Z,4.20
2019-03-05T21:28:57.088Z,4.10
2019-03-05T21:31:26.535Z,4.10
2019-03-05T21:33:56.029Z,4.10
2019-03-05T21:36:25.239Z,4.10
2019-03-05T21:38:58.403Z,4.10
2019-03-05T21:41:27.899Z,4.10
2019-03-05T21:43:57.386Z,4.10
2019-03-05T21:46:28.883Z,4.10
2019-03-05T21:49:03.093Z,4.10
2019-03-05T21:51:36.315Z,4.10
2019-03-05T21:54:10.984Z,4.00
2019-03-05T21:56:40.443Z,4.00
2019-03-05T21:59:10.765Z,4.00
2019-03-05T22:01:41.210Z,4.00
2019-03-05T22:04:10.600Z,4.00
2019-03-05T22:06:42.782Z,3.90
2019-03-05T22:09:12.976Z,3.90
2019-03-05T22:11:43.994Z,3.90
2019-03-05T22:14:13.173Z,3.90
2019-03-05T22:16:42.830Z,3.90
2019-03-05T22:19:12.268Z,3.90
2019-03-05T22:21:46.968Z,3.90
2019-03-05T22:24:22.643Z,3.90
2019-03-05T22:26:52.939Z,3.90
2019-03-05T22:29:22.439Z,3.90
2019-03-05T22:31:52.028Z,3.90
2019-03-05T22:34:23.491Z,3.80
2019-03-05T22:37:09.894Z,3.80
2019-03-05T22:39:46.253Z,3.80
2019-03-05T22:42:15.797Z,3.80
2019-03-05T22:44:45.290Z,3.80
2019-03-05T22:47:16.890Z,3.80
2019-03-05T22:49:46.372Z,3.80
2019-03-05T22:52:15.843Z,3.70
2019-03-05T22:54:46.439Z,3.70
2019-03-05T22:57:15.771Z,3.70
2019-03-05T22:59:45.198Z,3.70
2019-03-05T23:02:14.769Z,3.70
2019-03-05T23:04:44.994Z,3.70
2019-03-05T23:07:15.663Z,3.70
2019-03-05T23:09:45.044Z,3.60
2019-03-05T23:12:14.432Z,3.60
2019-03-05T23:14:43.859Z,3.60
2019-03-05T23:17:14.148Z,3.60
2019-03-05T23:19:43.867Z,3.60
2019-03-05T23:22:14.434Z,3.50
2019-03-05T23:24:43.926Z,3.50
2019-03-05T23:27:13.611Z,3.50
2019-03-05T23:29:43.629Z,3.40
2019-03-05T23:32:13.198Z,3.40
2019-03-05T23:34:43.640Z,3.40
2019-03-05T23:37:17.230Z,3.40
2019-03-05T23:39:47.489Z,3.40
2019-03-05T23:42:16.763Z,3.40
2019-03-05T23:44:49.429Z,3.40
2019-03-05T23:47:19.704Z,3.40
2019-03-05T23:49:49.744Z,3.40
2019-03-05T23:52:22.120Z,3.40
2019-03-05T23:54:51.478Z,3.40
2019-03-05T23:57:28.820Z,3.50
2019-03-05T23:59:58.683Z,3.50
